Time;durP1;ratioP1;P1;durP2;ratioP2;P2;SDS_P1;SDS_P2;PMS_P1;PMS_P2;Temp;Humidity;BMP_temperature;BMP_pressure;BME280_temperature;BME280_humidity;BME280_pressure;Samples;Min_cycle;Max_cycle;Signal;HPM_P1;HPM_P2
2022/02/26 00:01:12;;;;;;;7.77;2.03;;;1.40;99.90;;;;;;5051652;28;20171;-76
2022/02/26 00:03:38;;;;;;;7.77;2.33;;;1.40;99.90;;;;;;5049664;28;20135;-76
2022/02/26 00:06:03;;;;;;;9.33;2.30;;;1.40;99.90;;;;;;5051841;28;20024;-76
2022/02/26 00:08:29;;;;;;;8.87;3.07;;;1.40;99.90;;;;;;5051167;28;20087;-76
2022/02/26 00:10:55;;;;;;;10.27;3.20;;;1.40;99.90;;;;;;5051146;28;20032;-76
2022/02/26 00:13:20;;;;;;;7.87;2.60;;;1.30;99.90;;;;;;5051245;28;20021;-76
2022/02/26 00:15:46;;;;;;;8.37;2.20;;;1.30;99.90;;;;;;5051236;28;20021;-76
2022/02/26 00:18:11;;;;;;;7.43;2.37;;;1.30;99.90;;;;;;5051268;28;20024;-77
2022/02/26 00:20:37;;;;;;;6.10;2.33;;;1.20;99.90;;;;;;5051131;28;20025;-77
2022/02/26 00:23:02;;;;;;;10.77;2.67;;;1.20;99.90;;;;;;5050945;28;20096;-77
2022/02/26 00:25:28;;;;;;;8.37;2.80;;;1.20;99.90;;;;;;5051032;28;20066;-76
2022/02/26 00:27:54;;;;;;;13.90;3.10;;;1.30;99.90;;;;;;5051342;28;20794;-77
2022/02/26 00:30:19;;;;;;;9.73;2.93;;;1.20;99.90;;;;;;5050981;28;20024;-77
2022/02/26 00:32:45;;;;;;;8.70;2.63;;;1.20;99.90;;;;;;5050959;28;20068;-77
2022/02/26 00:35:11;;;;;;;9.80;2.90;;;1.20;99.90;;;;;;5050772;28;20126;-77
2022/02/26 00:37:36;;;;;;;7.83;2.90;;;1.20;99.90;;;;;;5050850;28;20033;-77
2022/02/26 00:40:02;;;;;;;4.97;2.40;;;1.30;99.90;;;;;;5049335;28;20091;-77
2022/02/26 00:42:28;;;;;;;7.13;2.77;;;1.40;99.90;;;;;;5051363;28;20380;-76
2022/02/26 00:44:53;;;;;;;6.50;2.50;;;1.30;99.90;;;;;;5051217;28;20025;-76
2022/02/26 00:47:19;;;;;;;8.33;2.90;;;1.30;99.90;;;;;;5051348;28;20117;-77
2022/02/26 00:49:47;;;;;;;16.27;2.70;;;1.30;99.90;;;;;;5050936;28;20363;-76
2022/02/26 00:52:29;;;;;;;9.90;3.17;;;1.20;99.90;;;;;;5050786;28;20150;-77
2022/02/26 00:54:55;;;;;;;10.17;2.90;;;1.20;99.90;;;;;;5051258;28;20025;-76
2022/02/26 00:57:21;;;;;;;7.40;2.87;;;1.20;99.90;;;;;;5051035;28;20031;-76
2022/02/26 00:59:47;;;;;;;8.87;3.13;;;1.10;99.90;;;;;;5049931;28;20104;-76
2022/02/26 01:02:12;;;;;;;9.83;3.13;;;0.90;99.90;;;;;;5049755;28;20032;-76
2022/02/26 01:04:40;;;;;;;9.07;2.90;;;1.00;99.90;;;;;;5039803;28;20698;-76
2022/02/26 01:07:06;;;;;;;10.43;3.87;;;0.90;99.90;;;;;;5031259;28;20119;-76
2022/02/26 01:09:32;;;;;;;9.00;3.07;;;0.90;99.90;;;;;;5029635;28;20048;-76
2022/02/26 01:11:58;;;;;;;8.03;3.40;;;1.00;99.90;;;;;;5030729;28;20026;-76
2022/02/26 01:14:24;;;;;;;6.87;2.90;;;1.10;99.90;;;;;;5032666;28;20013;-76
2022/02/26 01:16:50;;;;;;;11.20;3.03;;;1.10;99.90;;;;;;5035012;28;20021;-76
2022/02/26 01:19:16;;;;;;;9.43;3.00;;;1.10;99.90;;;;;;5048525;28;20021;-76
2022/02/26 01:21:43;;;;;;;10.63;2.83;;;1.10;99.90;;;;;;5055036;28;20028;-75
2022/02/26 01:24:10;;;;;;;8.87;3.10;;;1.10;99.90;;;;;;5054931;28;20466;-76
2022/02/26 01:26:36;;;;;;;10.80;3.63;;;1.10;99.90;;;;;;5054865;28;20437;-76
2022/02/26 01:29:03;;;;;;;9.50;3.27;;;1.20;99.90;;;;;;5054710;28;20045;-76
2022/02/26 01:31:29;;;;;;;8.67;3.10;;;1.20;99.90;;;;;;5054636;28;20104;-76
2022/02/26 01:33:55;;;;;;;8.67;3.27;;;1.20;99.90;;;;;;5054647;28;20426;-76
2022/02/26 01:36:21;;;;;;;12.33;3.93;;;1.20;99.90;;;;;;5054750;28;20035;-76
2022/02/26 01:38:46;;;;;;;9.70;3.00;;;1.20;99.90;;;;;;5054563;28;20112;-76
2022/02/26 01:41:12;;;;;;;7.47;2.80;;;1.30;99.90;;;;;;5054892;28;20021;-77
2022/02/26 01:43:38;;;;;;;8.57;3.40;;;1.30;99.90;;;;;;5054221;28;20033;-77
2022/02/26 01:46:06;;;;;;;9.17;3.27;;;1.30;99.90;;;;;;5054228;28;20048;-76
2022/02/26 01:48:32;;;;;;;7.33;3.13;;;1.30;99.90;;;;;;5053254;28;20537;-76
2022/02/26 01:50:58;;;;;;;7.50;3.00;;;1.30;99.90;;;;;;5054261;28;20055;-76
2022/02/26 01:53:24;;;;;;;7.83;3.33;;;1.30;99.90;;;;;;5054569;28;20059;-76
2022/02/26 01:55:50;;;;;;;6.67;2.90;;;1.30;99.90;;;;;;5054560;28;20052;-76
2022/02/26 01:58:16;;;;;;;9.10;2.73;;;1.30;99.90;;;;;;5054348;28;20021;-76
2022/02/26 02:00:42;;;;;;;7.23;2.87;;;1.20;99.90;;;;;;5052957;28;20071;-77
2022/02/26 02:03:08;;;;;;;6.60;2.93;;;1.20;99.90;;;;;;5054130;28;20047;-76
2022/02/26 02:05:34;;;;;;;6.53;2.60;;;1.20;99.90;;;;;;5052849;28;20057;-76
2022/02/26 02:07:59;;;;;;;4.67;2.30;;;1.20;99.90;;;;;;5054003;28;20116;-77
2022/02/26 02:10:25;;;;;;;6.03;2.73;;;1.20;99.90;;;;;;5052622;28;20371;-77
2022/02/26 02:12:51;;;;;;;7.57;2.87;;;1.20;99.90;;;;;;5053440;28;20025;-77
2022/02/26 02:15:31;;;;;;;6.30;2.23;;;1.20;99.90;;;;;;5053791;28;20497;-76
2022/02/26 02:17:57;;;;;;;8.13;2.33;;;1.30;99.90;;;;;;5053749;28;20074;-76
2022/02/26 02:20:23;;;;;;;6.30;2.40;;;1.30;99.90;;;;;;5052784;28;20099;-76
2022/02/26 02:22:48;;;;;;;6.27;2.63;;;1.40;99.90;;;;;;5054219;28;20029;-76
2022/02/26 02:25:16;;;;;;;7.87;2.53;;;1.50;99.90;;;;;;5053370;28;20033;-76
2022/02/26 02:27:42;;;;;;;6.40;2.10;;;1.60;99.90;;;;;;5053514;28;20021;-76
2022/02/26 02:30:08;;;;;;;6.03;2.30;;;1.60;99.90;;;;;;5053514;28;20362;-76
2022/02/26 02:32:34;;;;;;;6.37;2.60;;;1.50;99.90;;;;;;5053364;28;20017;-76
2022/02/26 02:34:59;;;;;;;5.53;2.70;;;1.50;99.90;;;;;;5053490;28;20162;-76
2022/02/26 02:37:25;;;;;;;3.63;2.07;;;1.50;99.90;;;;;;5053611;28;20017;-76
2022/02/26 02:39:50;;;;;;;3.10;1.90;;;1.50;99.90;;;;;;5053260;28;20025;-76
2022/02/26 02:42:16;;;;;;;5.33;2.30;;;1.50;99.90;;;;;;5053174;28;20513;-76
2022/02/26 02:44:43;;;;;;;6.53;2.23;;;1.50;99.90;;;;;;5053133;28;20057;-76
2022/02/26 02:47:09;;;;;;;4.47;2.00;;;1.50;99.90;;;;;;5053011;28;20446;-76
2022/02/26 02:49:35;;;;;;;5.80;2.07;;;1.50;99.90;;;;;;5052844;28;20036;-76
2022/02/26 02:52:01;;;;;;;8.07;2.63;;;1.50;99.90;;;;;;5053085;28;20418;-76
2022/02/26 02:54:26;;;;;;;7.73;2.40;;;1.50;99.90;;;;;;5053193;28;20176;-77
2022/02/26 02:56:52;;;;;;;10.27;2.33;;;1.50;99.90;;;;;;5053250;28;20025;-77
2022/02/26 02:59:18;;;;;;;6.17;2.43;;;1.70;99.90;;;;;;5053095;28;20474;-77
2022/02/26 03:01:43;;;;;;;7.77;2.37;;;1.60;99.90;;;;;;5053458;28;20033;-77
2022/02/26 03:04:09;;;;;;;8.70;2.67;;;1.90;99.90;;;;;;5053038;28;20033;-77
2022/02/26 03:06:35;;;;;;;6.43;2.30;;;1.80;99.90;;;;;;5052133;28;20052;-77
2022/02/26 03:09:00;;;;;;;7.47;2.53;;;1.70;99.90;;;;;;5053351;28;20031;-76
2022/02/26 03:11:26;;;;;;;10.00;2.90;;;1.70;99.90;;;;;;5053368;28;20021;-76
2022/02/26 03:13:52;;;;;;;8.23;2.73;;;1.60;99.90;;;;;;5053268;28;20419;-75
2022/02/26 03:16:17;;;;;;;5.10;2.70;;;1.50;99.90;;;;;;5053180;28;20052;-75
2022/02/26 03:18:43;;;;;;;8.67;2.33;;;1.60;99.90;;;;;;5053100;28;20036;-75
2022/02/26 03:21:09;;;;;;;6.50;2.93;;;1.50;99.90;;;;;;5053155;28;20048;-76
2022/02/26 03:23:35;;;;;;;11.20;3.40;;;1.50;99.90;;;;;;5053196;28;20043;-76
2022/02/26 03:26:00;;;;;;;10.13;2.93;;;1.50;99.90;;;;;;5051644;28;20021;-76
2022/02/26 03:28:26;;;;;;;9.13;2.80;;;1.50;99.90;;;;;;5052914;28;20791;-76
2022/02/26 03:30:51;;;;;;;6.00;2.50;;;1.40;99.90;;;;;;5052382;28;20456;-76
2022/02/26 03:33:17;;;;;;;6.60;2.70;;;1.40;99.90;;;;;;5052625;28;20078;-76
2022/02/26 03:35:43;;;;;;;8.57;2.50;;;1.40;99.90;;;;;;5052695;28;20170;-76
2022/02/26 03:38:09;;;;;;;6.93;2.83;;;1.40;99.90;;;;;;5052092;28;20025;-76
2022/02/26 03:40:35;;;;;;;7.70;3.53;;;1.40;99.90;;;;;;5052383;28;20021;-76
2022/02/26 03:43:02;;;;;;;7.70;3.20;;;1.40;99.90;;;;;;5052377;28;20128;-76
2022/02/26 03:45:27;;;;;;;6.37;3.00;;;1.40;99.90;;;;;;5052775;28;20036;-76
2022/02/26 03:47:53;;;;;;;11.13;4.37;;;1.40;99.90;;;;;;5051428;28;20052;-76
2022/02/26 03:50:18;;;;;;;7.93;3.50;;;1.30;99.90;;;;;;5052718;28;20029;-76
2022/02/26 03:52:44;;;;;;;8.97;3.63;;;1.30;99.90;;;;;;5052595;28;20096;-76
2022/02/26 03:55:10;;;;;;;8.03;3.40;;;1.30;99.90;;;;;;5052533;28;20032;-76
2022/02/26 03:57:36;;;;;;;9.50;3.63;;;1.20;99.90;;;;;;5051132;28;20124;-76
2022/02/26 04:00:04;;;;;;;14.57;4.27;;;1.20;99.90;;;;;;5052726;28;20021;-77
2022/02/26 04:02:29;;;;;;;10.13;3.50;;;1.20;99.90;;;;;;5052628;28;20052;-77
2022/02/26 04:04:55;;;;;;;7.03;3.37;;;1.20;99.90;;;;;;5052498;28;20072;-76
2022/02/26 04:07:21;;;;;;;10.87;3.80;;;1.20;99.90;;;;;;5052543;28;20074;-76
2022/02/26 04:09:46;;;;;;;10.40;3.50;;;1.20;99.90;;;;;;5052840;28;20033;-76
2022/02/26 04:12:12;;;;;;;12.77;4.30;;;1.20;99.90;;;;;;5052461;28;20536;-76
2022/02/26 04:14:37;;;;;;;10.00;4.13;;;1.10;99.90;;;;;;5052584;28;20096;-76
2022/02/26 04:17:03;;;;;;;8.73;4.00;;;1.10;99.90;;;;;;5052524;28;20021;-77
2022/02/26 04:19:29;;;;;;;8.47;3.83;;;1.20;99.90;;;;;;5052583;28;20024;-76
2022/02/26 04:21:55;;;;;;;7.87;3.87;;;1.10;99.90;;;;;;5052405;28;20112;-77
2022/02/26 04:24:21;;;;;;;11.13;4.17;;;1.10;99.90;;;;;;5052455;28;20098;-77
2022/02/26 04:26:46;;;;;;;7.33;3.33;;;1.10;99.90;;;;;;5052449;28;20470;-77
2022/02/26 04:29:12;;;;;;;12.20;4.23;;;1.10;99.90;;;;;;5052310;28;20074;-76
2022/02/26 04:31:38;;;;;;;10.53;4.30;;;1.10;99.90;;;;;;5051028;28;20058;-76
2022/02/26 04:34:04;;;;;;;8.80;3.77;;;1.10;99.90;;;;;;5052330;28;20462;-76
2022/02/26 04:36:30;;;;;;;9.17;4.13;;;1.10;99.90;;;;;;5050617;28;20032;-76
2022/02/26 04:38:56;;;;;;;10.07;3.80;;;1.10;99.90;;;;;;5051975;28;20076;-76
2022/02/26 04:41:22;;;;;;;9.83;3.57;;;1.10;99.90;;;;;;5052164;28;20021;-76
2022/02/26 04:43:47;;;;;;;10.03;4.00;;;1.10;99.90;;;;;;5052268;28;20036;-76
2022/02/26 04:46:13;;;;;;;11.13;4.40;;;1.10;99.90;;;;;;5050861;28;20044;-76
2022/02/26 04:48:39;;;;;;;10.87;4.53;;;1.10;99.90;;;;;;5051935;28;20096;-76
2022/02/26 04:51:08;;;;;;;8.70;3.93;;;1.10;99.90;;;;;;5051934;28;20021;-76
2022/02/26 04:53:37;;;;;;;7.60;3.67;;;1.10;99.90;;;;;;5052163;28;20422;-76
2022/02/26 04:56:04;;;;;;;9.63;3.80;;;1.10;99.90;;;;;;5052042;28;20021;-76
2022/02/26 04:58:31;;;;;;;9.17;3.50;;;1.10;99.90;;;;;;5052001;28;20382;-76
2022/02/26 05:00:58;;;;;;;11.23;3.73;;;1.10;99.90;;;;;;5051922;28;20036;-76
2022/02/26 05:03:23;;;;;;;7.83;3.63;;;1.10;99.90;;;;;;5051744;28;20024;-76
2022/02/26 05:05:49;;;;;;;8.63;3.57;;;1.10;99.90;;;;;;5050590;28;20475;-76
2022/02/26 05:08:14;;;;;;;7.47;3.33;;;1.10;99.90;;;;;;5052233;28;20418;-76
2022/02/26 05:10:40;;;;;;;10.77;3.23;;;1.10;99.90;;;;;;5051620;28;20029;-76
2022/02/26 05:13:06;;;;;;;6.97;3.27;;;1.10;99.90;;;;;;5051626;28;20051;-76
2022/02/26 05:15:31;;;;;;;10.87;4.13;;;1.10;99.90;;;;;;5051593;28;20035;-76
2022/02/26 05:17:57;;;;;;;11.10;3.97;;;1.10;99.90;;;;;;5051776;28;20032;-76
2022/02/26 05:20:22;;;;;;;7.60;3.07;;;1.10;99.90;;;;;;5051756;28;20027;-76
2022/02/26 05:22:48;;;;;;;6.80;3.20;;;1.10;99.90;;;;;;5051731;28;20450;-76
2022/02/26 05:25:14;;;;;;;9.77;3.33;;;1.10;99.90;;;;;;5051712;28;20033;-76
2022/02/26 05:27:40;;;;;;;6.37;2.80;;;1.20;99.90;;;;;;5051856;28;20037;-76
2022/02/26 05:30:07;;;;;;;8.37;3.10;;;1.20;99.90;;;;;;5051839;28;20025;-76
2022/02/26 05:32:33;;;;;;;8.57;3.27;;;1.20;99.90;;;;;;5046074;28;20111;-76
2022/02/26 05:34:58;;;;;;;6.73;3.20;;;1.20;99.90;;;;;;5051944;28;20049;-76
2022/02/26 05:37:24;;;;;;;10.70;3.13;;;1.20;99.90;;;;;;5052065;28;20028;-76
2022/02/26 05:39:50;;;;;;;4.63;2.93;;;1.20;99.90;;;;;;5051454;28;20021;-76
2022/02/26 05:42:16;;;;;;;9.67;3.10;;;1.20;99.90;;;;;;5045334;28;20025;-76
2022/02/26 05:44:42;;;;;;;5.17;2.83;;;1.20;99.90;;;;;;5032003;28;20121;-77
2022/02/26 05:47:08;;;;;;;7.60;3.20;;;1.30;99.90;;;;;;5039809;28;20129;-77
2022/02/26 05:49:33;;;;;;;8.70;3.53;;;1.30;99.90;;;;;;5052002;28;20052;-76
2022/02/26 05:51:59;;;;;;;8.67;3.53;;;1.30;99.90;;;;;;5050237;28;20064;-76
2022/02/26 05:54:25;;;;;;;7.63;3.23;;;1.30;99.90;;;;;;5051757;28;20063;-76
2022/02/26 05:56:50;;;;;;;7.50;3.17;;;1.30;99.90;;;;;;5051565;28;20531;-77
2022/02/26 05:59:16;;;;;;;10.93;3.60;;;1.30;99.90;;;;;;5050121;28;20102;-77
2022/02/26 06:01:42;;;;;;;16.77;7.47;;;1.30;99.90;;;;;;5053693;28;20068;-76
2022/02/26 06:04:07;;;;;;;10.30;4.73;;;1.40;99.90;;;;;;5055092;28;20036;-76
2022/02/26 06:06:33;;;;;;;6.87;4.37;;;1.50;99.90;;;;;;5055234;28;20104;-76
2022/02/26 06:08:58;;;;;;;9.73;3.93;;;1.60;99.90;;;;;;5054974;28;20411;-76
2022/02/26 06:11:24;;;;;;;14.67;4.67;;;1.50;99.90;;;;;;5054724;28;20044;-76
2022/02/26 06:13:49;;;;;;;8.87;3.80;;;1.50;99.90;;;;;;5053703;28;20409;-76
2022/02/26 06:16:15;;;;;;;9.33;4.23;;;1.40;99.90;;;;;;5054663;28;20104;-76
2022/02/26 06:18:41;;;;;;;9.50;4.27;;;1.40;99.90;;;;;;5054886;28;20033;-76
2022/02/26 06:21:07;;;;;;;7.40;3.50;;;1.40;99.90;;;;;;5053292;28;20025;-76
2022/02/26 06:23:32;;;;;;;6.63;4.03;;;1.40;99.90;;;;;;5054888;28;20449;-76
2022/02/26 06:25:58;;;;;;;10.07;3.93;;;1.40;99.90;;;;;;5053256;28;20555;-76
2022/02/26 06:28:23;;;;;;;10.30;4.13;;;1.40;99.90;;;;;;5054599;28;20338;-76
2022/02/26 06:30:49;;;;;;;11.27;4.57;;;1.40;99.90;;;;;;5050145;28;20021;-79
2022/02/26 06:33:16;;;;;;;8.20;4.27;;;1.40;99.90;;;;;;5041296;28;20029;-79
2022/02/26 06:35:42;;;;;;;10.70;4.93;;;1.40;99.90;;;;;;5051539;28;20021;-79
2022/02/26 06:38:08;;;;;;;8.60;4.30;;;1.40;99.90;;;;;;5051142;28;20037;-79
2022/02/26 06:40:34;;;;;;;10.77;4.50;;;1.40;99.90;;;;;;5049267;28;20021;-79
2022/02/26 06:42:59;;;;;;;9.50;4.67;;;1.40;99.90;;;;;;5049265;28;20104;-80
2022/02/26 06:45:25;;;;;;;7.87;4.70;;;1.50;99.90;;;;;;5051016;28;20167;-79
2022/02/26 06:47:51;;;;;;;10.23;4.63;;;1.50;99.90;;;;;;5047996;28;20561;-78
2022/02/26 06:50:16;;;;;;;10.87;4.70;;;1.50;99.90;;;;;;5048095;28;20497;-79
2022/02/26 06:52:42;;;;;;;8.17;4.50;;;1.50;99.90;;;;;;5049601;28;20025;-88
2022/02/26 06:55:08;;;;;;;14.13;4.83;;;1.50;99.90;;;;;;5048406;28;20021;-80
2022/02/26 06:57:34;;;;;;;12.73;5.10;;;1.40;99.90;;;;;;5042938;28;20094;-79
2022/02/26 06:59:59;;;;;;;14.33;4.70;;;1.40;99.90;;;;;;5047353;28;20017;-79
2022/02/26 07:02:26;;;;;;;11.83;5.40;;;1.50;99.90;;;;;;5046517;28;20021;-79
2022/02/26 07:04:51;;;;;;;11.73;5.20;;;1.50;99.90;;;;;;5042906;28;20021;-79
2022/02/26 07:07:17;;;;;;;9.13;5.60;;;1.50;99.90;;;;;;5046072;28;20052;-75
2022/02/26 07:09:43;;;;;;;14.70;4.67;;;1.50;99.90;;;;;;5053372;28;20021;-76
2022/02/26 07:12:09;;;;;;;11.27;5.00;;;1.60;99.90;;;;;;5053153;28;20025;-76
2022/02/26 07:14:36;;;;;;;12.73;5.00;;;1.70;99.90;;;;;;5053114;28;20040;-76
2022/02/26 07:17:01;;;;;;;15.00;5.70;;;1.70;99.90;;;;;;5053441;28;20385;-75
2022/02/26 07:19:27;;;;;;;13.87;5.33;;;2.00;99.90;;;;;;5053355;28;20100;-76
2022/02/26 07:21:56;;;;;;;10.87;4.87;;;1.90;99.90;;;;;;5050159;28;20484;-76
2022/02/26 07:24:22;;;;;;;13.77;5.23;;;1.90;99.90;;;;;;5047190;28;20074;-76
2022/02/26 07:26:48;;;;;;;12.03;4.73;;;1.90;99.90;;;;;;5052693;28;20029;-76
2022/02/26 07:29:13;;;;;;;11.70;4.53;;;2.00;99.90;;;;;;5052482;28;20025;-76
2022/02/26 07:31:39;;;;;;;12.90;4.97;;;1.90;99.90;;;;;;5052647;28;20033;-75
2022/02/26 07:34:04;;;;;;;11.43;4.43;;;1.80;99.90;;;;;;5049609;28;20060;-76
2022/02/26 07:36:30;;;;;;;11.03;4.73;;;1.80;99.90;;;;;;5049515;28;20543;-77
2022/02/26 07:38:56;;;;;;;12.23;5.57;;;1.80;99.90;;;;;;5051003;28;20032;-76
2022/02/26 07:41:21;;;;;;;11.43;5.03;;;1.80;99.90;;;;;;5050710;28;20087;-78
2022/02/26 07:43:47;;;;;;;18.20;6.20;;;1.90;99.90;;;;;;5051788;28;20040;-75
2022/02/26 07:46:13;;;;;;;19.10;6.33;;;1.80;99.90;;;;;;5052505;28;20048;-76
2022/02/26 07:48:39;;;;;;;15.57;5.97;;;1.80;99.90;;;;;;5048150;28;20112;-79
2022/02/26 07:51:04;;;;;;;16.90;6.57;;;1.80;99.90;;;;;;5048796;28;20033;-80
2022/02/26 07:53:30;;;;;;;13.53;6.07;;;2.00;99.90;;;;;;5046463;28;20035;-81
2022/02/26 07:55:55;;;;;;;17.30;6.93;;;2.20;99.90;;;;;;5047028;28;20029;-79
2022/02/26 07:58:21;;;;;;;15.03;6.93;;;2.20;99.90;;;;;;5046391;28;20040;-79
2022/02/26 08:00:48;;;;;;;12.13;6.27;;;2.20;99.90;;;;;;5045599;28;20112;-78
2022/02/26 08:03:13;;;;;;;16.60;7.00;;;2.10;99.90;;;;;;5047033;28;20052;-79
2022/02/26 08:05:39;;;;;;;17.10;6.40;;;2.20;99.90;;;;;;5046665;28;20414;-79
2022/02/26 08:08:05;;;;;;;14.93;6.77;;;2.20;99.90;;;;;;5046964;28;20076;-78
2022/02/26 08:10:30;;;;;;;14.37;6.40;;;2.30;99.90;;;;;;5046330;28;20100;-78
2022/02/26 08:12:57;;;;;;;16.77;6.50;;;2.40;99.90;;;;;;5044820;28;20584;-78
2022/02/26 08:15:26;;;;;;;20.33;6.27;;;2.70;99.90;;;;;;5044928;28;20470;-78
2022/02/26 08:17:52;;;;;;;15.20;6.50;;;2.80;99.90;;;;;;5046237;28;20090;-77
2022/02/26 08:20:19;;;;;;;15.23;6.50;;;2.70;99.90;;;;;;5046350;28;20029;-77
2022/02/26 08:22:45;;;;;;;15.97;7.50;;;2.90;99.90;;;;;;5026158;28;20033;-78
2022/02/26 08:25:11;;;;;;;9.93;5.33;;;3.10;99.90;;;;;;5026077;28;20469;-77
2022/02/26 08:27:41;;;;;;;13.27;5.63;;;3.40;99.90;;;;;;5026690;28;20091;-77
2022/02/26 08:30:09;;;;;;;12.57;5.30;;;3.30;99.90;;;;;;5024625;28;20048;-77
2022/02/26 08:32:35;;;;;;;14.10;5.13;;;3.50;99.90;;;;;;5026357;28;20124;-78
2022/02/26 08:35:02;;;;;;;15.10;5.00;;;3.70;99.90;;;;;;5039422;28;20109;-78
2022/02/26 08:37:27;;;;;;;13.23;5.07;;;3.70;99.90;;;;;;5046608;28;20057;-78
2022/02/26 08:39:53;;;;;;;13.43;4.47;;;3.80;99.90;;;;;;5046532;28;20021;-78
2022/02/26 08:42:19;;;;;;;14.70;4.80;;;3.90;99.90;;;;;;5046025;28;20124;-78
2022/02/26 08:44:44;;;;;;;12.40;5.30;;;3.70;99.90;;;;;;5046049;28;20027;-78
2022/02/26 08:47:10;;;;;;;11.67;4.63;;;4.00;99.90;;;;;;5044803;28;20460;-78
2022/02/26 08:49:36;;;;;;;10.37;4.67;;;4.10;99.90;;;;;;5046061;28;20025;-78
2022/02/26 08:52:03;;;;;;;10.73;4.33;;;4.10;99.90;;;;;;5046389;28;20040;-78
2022/02/26 08:54:29;;;;;;;12.47;4.43;;;4.00;99.90;;;;;;5046137;28;20021;-77
2022/02/26 08:56:54;;;;;;;14.07;4.93;;;4.00;99.90;;;;;;5044950;28;20363;-78
2022/02/26 08:59:20;;;;;;;12.03;4.53;;;4.10;99.90;;;;;;5044425;28;20112;-78
2022/02/26 09:01:46;;;;;;;12.70;4.97;;;4.20;99.90;;;;;;5046148;28;20721;-78
2022/02/26 09:04:11;;;;;;;13.30;4.27;;;4.20;99.90;;;;;;5046204;28;20140;-77
2022/02/26 09:06:37;;;;;;;15.77;4.53;;;4.10;99.90;;;;;;5046130;28;20508;-77
2022/02/26 09:09:07;;;;;;;11.27;4.10;;;4.30;99.90;;;;;;5049474;28;20111;-78
2022/02/26 09:11:33;;;;;;;11.50;4.40;;;4.30;99.90;;;;;;5049212;28;20071;-78
2022/02/26 09:13:59;;;;;;;8.67;3.47;;;4.30;99.90;;;;;;5049576;28;20649;-77
2022/02/26 09:16:25;;;;;;;13.00;3.80;;;4.50;99.90;;;;;;5049409;28;20109;-77
2022/02/26 09:18:50;;;;;;;10.20;3.90;;;4.50;99.90;;;;;;5049175;28;20032;-78
2022/02/26 09:21:16;;;;;;;9.77;4.20;;;4.70;99.90;;;;;;5049517;28;20028;-77
2022/02/26 09:23:41;;;;;;;10.73;4.17;;;4.70;99.90;;;;;;5049419;28;20025;-77
2022/02/26 09:26:08;;;;;;;17.97;5.80;;;4.70;99.90;;;;;;5048809;28;20550;-77
2022/02/26 09:28:35;;;;;;;9.30;3.93;;;4.70;99.90;;;;;;5049449;28;20482;-78
2022/02/26 09:31:02;;;;;;;11.43;4.43;;;4.80;99.90;;;;;;5049211;28;20040;-78
2022/02/26 09:33:30;;;;;;;11.40;4.33;;;4.90;99.90;;;;;;5049016;28;20377;-79
2022/02/26 09:35:57;;;;;;;10.10;4.00;;;5.00;99.90;;;;;;5050401;28;20055;-77
2022/02/26 09:38:23;;;;;;;10.73;3.97;;;5.20;99.90;;;;;;5053302;28;20036;-76
2022/02/26 09:40:49;;;;;;;8.40;3.47;;;5.50;99.90;;;;;;5053196;28;20025;-69
2022/02/26 09:43:14;;;;;;;8.30;3.63;;;5.60;99.90;;;;;;5051686;28;20479;-76
2022/02/26 09:45:40;;;;;;;11.93;3.83;;;5.50;99.90;;;;;;5043025;28;20158;-78
2022/02/26 09:48:06;;;;;;;9.37;3.30;;;5.80;99.90;;;;;;5048887;28;20029;-79
2022/02/26 09:50:31;;;;;;;8.80;4.17;;;6.00;99.90;;;;;;5051688;28;20021;-78
2022/02/26 09:52:58;;;;;;;12.87;4.17;;;6.00;99.90;;;;;;5052841;28;20857;-79
2022/02/26 09:55:24;;;;;;;8.80;3.67;;;6.20;99.90;;;;;;5053252;28;20020;-77
2022/02/26 09:57:50;;;;;;;10.93;3.83;;;6.40;99.90;;;;;;5053167;28;20316;-78
2022/02/26 10:00:16;;;;;;;8.90;3.23;;;6.10;99.90;;;;;;5053209;28;20510;-77
2022/02/26 10:02:48;;;;;;;9.30;3.10;;;6.20;99.90;;;;;;5054423;28;20501;-78
2022/02/26 10:05:18;;;;;;;11.90;2.63;;;6.30;99.90;;;;;;5053005;28;20033;-80
2022/02/26 10:07:46;;;;;;;8.90;2.67;;;6.70;99.90;;;;;;5031212;28;20087;-66
2022/02/26 10:10:19;;;;;;;9.50;2.17;;;6.80;99.90;;;;;;5054285;28;20025;-82
2022/02/26 10:12:49;;;;;;;10.00;2.63;;;6.80;99.90;;;;;;5054036;28;20033;-80
2022/02/26 10:15:23;;;;;;;7.90;2.30;;;6.70;99.90;;;;;;5046856;28;20024;-79
2022/02/26 10:18:01;;;;;;;10.80;2.90;;;6.50;99.90;;;;;;5056434;28;20036;-79
2022/02/26 10:20:27;;;;;;;9.37;2.57;;;6.10;99.90;;;;;;5043818;28;20041;-82
2022/02/26 10:22:54;;;;;;;11.33;2.93;;;6.00;99.90;;;;;;5037146;28;20063;-80
2022/02/26 10:25:23;;;;;;;11.50;2.67;;;5.90;99.90;;;;;;5051715;28;20028;-78
2022/02/26 10:27:52;;;;;;;11.40;2.90;;;5.80;99.90;;;;;;5032099;28;20526;-77
2022/02/26 10:30:36;;;;;;;11.00;2.40;;;5.70;99.90;;;;;;5031988;28;20036;-78
2022/02/26 10:33:12;;;;;;;11.47;2.60;;;5.60;99.90;;;;;;5031680;28;20441;-77
2022/02/26 10:35:55;;;;;;;30.60;9.03;;;5.50;99.90;;;;;;5051818;28;20025;-78
2022/02/26 10:38:27;;;;;;;15.97;5.07;;;5.40;99.90;;;;;;5051609;28;20028;-79
2022/02/26 10:41:04;;;;;;;12.57;3.27;;;5.30;99.90;;;;;;5051802;28;20493;-79
2022/02/26 10:43:37;;;;;;;13.97;2.80;;;5.30;99.90;;;;;;5051667;28;20048;-79
2022/02/26 10:46:17;;;;;;;10.50;2.83;;;5.10;99.90;;;;;;5051119;28;20056;-79
2022/02/26 10:48:44;;;;;;;41.03;5.83;;;5.00;99.90;;;;;;5051354;28;20432;-80
2022/02/26 10:51:18;;;;;;;15.47;3.23;;;4.90;99.90;;;;;;5050918;28;20021;-80
2022/02/26 10:53:44;;;;;;;16.20;2.93;;;4.90;99.90;;;;;;5054294;28;20435;-79
2022/02/26 10:56:12;;;;;;;10.97;2.07;;;4.70;99.90;;;;;;5054301;28;20166;-79
2022/02/26 10:58:38;;;;;;;68.17;8.83;;;4.80;99.90;;;;;;5054169;28;20135;-79
2022/02/26 11:01:18;;;;;;;14.00;2.70;;;4.90;99.90;;;;;;5052812;28;20021;-79
2022/02/26 11:03:43;;;;;;;12.07;3.13;;;5.20;99.90;;;;;;5054344;28;20114;-76
2022/02/26 11:06:11;;;;;;;11.80;2.60;;;5.20;99.90;;;;;;5053645;28;20144;-75
2022/02/26 11:08:39;;;;;;;9.90;2.30;;;5.60;99.90;;;;;;5053241;28;20025;-75
2022/02/26 11:11:06;;;;;;;13.83;2.77;;;6.20;99.90;;;;;;5053456;28;20456;-75
2022/02/26 11:13:34;;;;;;;10.70;2.47;;;6.20;99.90;;;;;;5053410;28;20017;-75
2022/02/26 11:16:01;;;;;;;7.03;2.50;;;6.60;99.90;;;;;;5053074;28;20072;-75
2022/02/26 11:18:37;;;;;;;4.93;2.10;;;6.90;99.90;;;;;;5053502;28;20033;-78
2022/02/26 11:21:05;;;;;;;6.97;2.10;;;6.90;99.90;;;;;;5034184;28;20523;-74
2022/02/26 11:23:32;;;;;;;8.73;1.80;;;7.00;99.90;;;;;;5043125;28;20021;-80
2022/02/26 11:25:59;;;;;;;5.60;2.03;;;6.80;99.90;;;;;;5030944;28;20026;-80
2022/02/26 11:28:26;;;;;;;8.57;2.40;;;6.70;99.90;;;;;;5029523;28;20477;-80
2022/02/26 11:30:58;;;;;;;10.60;2.30;;;6.60;99.90;;;;;;5029531;28;20083;-80
2022/02/26 11:33:25;;;;;;;8.07;2.10;;;6.50;99.90;;;;;;5030823;28;20433;-80
2022/02/26 11:35:52;;;;;;;4.60;2.00;;;6.10;99.90;;;;;;5037622;28;20017;-80
2022/02/26 11:38:19;;;;;;;10.17;2.47;;;6.10;99.90;;;;;;5037585;28;21723;-80
2022/02/26 11:41:12;;;;;;;7.57;2.13;;;6.00;99.90;;;;;;5050804;28;20091;-80
2022/02/26 11:43:39;;;;;;;6.40;1.80;;;5.70;99.90;;;;;;5036253;28;20029;-78
2022/02/26 11:46:25;;;;;;;5.90;2.00;;;5.80;99.90;;;;;;5040828;28;20029;-78
2022/02/26 11:48:53;;;;;;;7.33;1.97;;;6.20;99.90;;;;;;5038104;28;20109;-80
2022/02/26 11:51:19;;;;;;;8.80;2.63;;;6.30;99.90;;;;;;5047847;28;20052;-79
2022/02/26 11:53:46;;;;;;;8.70;1.70;;;6.30;99.90;;;;;;5047144;28;20024;-79
2022/02/26 11:56:14;;;;;;;7.20;2.37;;;6.40;99.90;;;;;;5050332;28;20079;-80
2022/02/26 11:58:43;;;;;;;9.27;2.43;;;6.50;99.90;;;;;;5049372;28;20021;-79
2022/02/26 12:01:12;;;;;;;9.67;1.93;;;6.40;99.90;;;;;;5049815;28;20074;-79
2022/02/26 12:03:41;;;;;;;8.27;2.20;;;6.40;99.90;;;;;;5050059;28;20113;-80
2022/02/26 12:06:12;;;;;;;7.73;2.10;;;6.00;99.90;;;;;;5050334;28;20024;-79
2022/02/26 12:08:58;;;;;;;7.17;2.80;;;5.90;99.90;;;;;;5050042;28;20516;-80
2022/02/26 12:11:42;;;;;;;8.73;3.00;;;5.80;99.90;;;;;;5048665;28;20036;-79
2022/02/26 12:14:18;;;;;;;8.67;1.83;;;5.80;99.90;;;;;;5049971;28;20037;-79
2022/02/26 12:16:48;;;;;;;25.60;8.33;;;6.00;99.90;;;;;;5050154;28;20017;-79
2022/02/26 12:19:14;;;;;;;18.37;6.03;;;5.90;99.90;;;;;;5049951;28;20035;-78
2022/02/26 12:21:47;;;;;;;9.17;2.97;;;5.70;99.90;;;;;;5048123;28;20368;-79
2022/02/26 12:24:21;;;;;;;5.43;1.90;;;5.80;99.90;;;;;;5048531;28;20458;-80
2022/02/26 12:26:59;;;;;;;6.23;2.13;;;5.80;99.90;;;;;;5049744;28;20477;-80
2022/02/26 12:29:39;;;;;;;13.47;3.10;;;5.70;99.90;;;;;;5048724;28;20020;-80
2022/02/26 12:32:13;;;;;;;15.60;4.90;;;5.80;99.90;;;;;;5049819;28;20462;-80
2022/02/26 12:34:41;;;;;;;6.83;1.97;;;5.60;99.90;;;;;;5049874;28;20029;-80
2022/02/26 12:37:10;;;;;;;4.57;1.80;;;5.70;99.90;;;;;;5049405;28;20033;-80
2022/02/26 12:39:57;;;;;;;5.67;2.00;;;5.80;99.90;;;;;;5049787;28;20319;-79
2022/02/26 12:42:27;;;;;;;7.33;1.80;;;5.70;99.90;;;;;;5049589;28;20458;-79
2022/02/26 12:44:56;;;;;;;9.87;2.43;;;5.60;99.90;;;;;;5049646;28;20490;-79
2022/02/26 12:47:22;;;;;;;7.30;1.80;;;5.60;99.90;;;;;;5048954;28;20048;-79
2022/02/26 12:49:49;;;;;;;14.23;3.93;;;5.40;99.90;;;;;;5048356;28;20516;-79
2022/02/26 12:52:15;;;;;;;9.40;2.90;;;5.20;99.90;;;;;;5048187;28;20108;-79